Time;durP1;ratioP1;P1;durP2;ratioP2;P2;SDS_P1;SDS_P2;PMS_P1;PMS_P2;Temp;Humidity;BMP_temperature;BMP_pressure;BME280_temperature;BME280_humidity;BME280_pressure;Samples;Min_cycle;Max_cycle;Signal;HPM_P1;HPM_P2
2022/04/25 00:00:05;;;;;;;25.25;23.42;;;;;;;8.92;99.77;100803.78;10487006;28;20055;-60
2022/04/25 00:05:07;;;;;;;21.17;19.55;;;;;;;8.96;100.00;100807.13;10460712;28;20411;-60
2022/04/25 00:10:10;;;;;;;20.83;19.05;;;;;;;9.07;97.59;100789.13;10460490;28;20594;-60
2022/04/25 00:15:12;;;;;;;20.52;18.77;;;;;;;8.85;100.00;100796.34;10460938;28;20052;-60
2022/04/25 00:20:14;;;;;;;16.00;14.60;;;;;;;8.90;100.00;100799.59;10462383;28;20515;-60
2022/04/25 00:25:17;;;;;;;15.80;14.40;;;;;;;8.79;99.14;100807.94;10461795;28;20128;-60
2022/04/25 00:30:19;;;;;;;13.57;12.00;;;;;;;8.44;100.00;100800.09;10479443;28;20052;-60
2022/04/25 00:35:22;;;;;;;12.70;10.45;;;;;;;8.42;100.00;100806.25;10501745;28;20045;-60
2022/04/25 00:40:25;;;;;;;12.07;9.50;;;;;;;7.87;100.00;100809.69;10500672;28;20045;-59
2022/04/25 00:45:32;;;;;;;11.48;9.35;;;;;;;8.12;100.00;100812.88;10502400;28;20055;-60
2022/04/25 00:50:35;;;;;;;10.73;9.30;;;;;;;8.21;100.00;100811.59;10502036;28;20105;-60
2022/04/25 00:55:37;;;;;;;11.07;9.95;;;;;;;8.08;100.00;100813.91;10501846;28;20047;-60
2022/04/25 01:00:40;;;;;;;13.10;8.93;;;;;;;7.97;100.00;100811.81;10500043;28;20049;-60
2022/04/25 01:05:42;;;;;;;11.25;9.57;;;;;;;8.02;100.00;100811.63;10499774;28;20123;-60
2022/04/25 01:10:45;;;;;;;9.55;8.57;;;;;;;8.40;100.00;100811.53;10501249;28;20067;-60
2022/04/25 01:15:47;;;;;;;13.00;9.60;;;;;;;8.21;100.00;100810.75;10498974;28;20045;-60
2022/04/25 01:20:52;;;;;;;17.15;10.02;;;;;;;8.05;100.00;100811.44;10477611;28;20056;-60
2022/04/25 01:31:16;;;;;;;13.68;9.45;;;;;;;7.52;100.00;100806.94;10459192;28;20052;-60
2022/04/25 01:36:24;;;;;;;17.75;9.45;;;;;;;7.70;100.00;100813.06;10458311;28;20495;-60
2022/04/25 01:41:26;;;;;;;12.68;9.15;;;;;;;7.88;100.00;100809.63;10459075;28;20057;-59
2022/04/25 01:46:29;;;;;;;15.88;9.75;;;;;;;7.97;100.00;100810.97;10458609;28;20045;-60
2022/04/25 01:51:35;;;;;;;12.30;9.25;;;;;;;8.10;100.00;100809.50;10490253;28;20053;-60
2022/04/25 01:56:37;;;;;;;11.38;8.98;;;;;;;7.98;100.00;100808.31;10495912;28;20507;-60
2022/04/25 02:01:39;;;;;;;13.40;9.07;;;;;;;7.74;100.00;100806.81;10497043;28;20059;-60
2022/04/25 02:06:42;;;;;;;13.02;8.60;;;;;;;7.80;100.00;100807.38;10498277;28;20048;-60
2022/04/25 02:11:44;;;;;;;16.00;10.55;;;;;;;7.69;100.00;100812.22;10469055;28;20055;-60
2022/04/25 02:16:47;;;;;;;15.85;9.20;;;;;;;7.91;100.00;100813.88;10455428;28;20401;-59
2022/04/25 02:21:49;;;;;;;17.73;9.55;;;;;;;7.54;100.00;100800.72;10458500;28;20064;-60
2022/04/25 02:26:52;;;;;;;12.30;9.02;;;;;;;7.33;100.00;100791.25;10457292;28;20055;-60
2022/04/25 02:31:54;;;;;;;12.40;9.23;;;;;;;7.24;100.00;100798.56;10457169;28;20049;-60
2022/04/25 02:36:57;;;;;;;13.30;9.40;;;;;;;7.31;100.00;100788.72;10456935;28;20052;-60
2022/04/25 02:41:59;;;;;;;16.42;9.70;;;;;;;7.37;100.00;100798.03;10457679;28;20053;-60
2022/04/25 02:47:02;;;;;;;13.25;9.52;;;;;;;7.12;100.00;100795.66;10456260;28;20382;-60
2022/04/25 02:52:04;;;;;;;18.30;10.23;;;;;;;7.05;100.00;100808.09;10456764;28;20053;-60
2022/04/25 02:57:07;;;;;;;15.82;10.40;;;;;;;6.87;100.00;100807.94;10456106;28;20045;-59
2022/04/25 03:02:09;;;;;;;12.88;9.63;;;;;;;7.01;100.00;100799.56;10457011;28;20511;-60
2022/04/25 03:07:12;;;;;;;12.93;9.77;;;;;;;7.05;100.00;100808.09;10455863;28;20049;-60
2022/04/25 03:12:16;;;;;;;17.17;9.75;;;;;;;7.24;100.00;100800.31;10456409;28;20053;-61
2022/04/25 03:17:19;;;;;;;12.68;10.70;;;;;;;6.99;100.00;100800.53;10456237;28;20040;-60
2022/04/25 03:22:21;;;;;;;22.30;11.93;;;;;;;6.83;100.00;100805.53;10456469;28;20059;-61
2022/04/25 03:27:23;;;;;;;16.63;11.68;;;;;;;6.92;100.00;100810.34;10460435;28;20045;-60
2022/04/25 03:32:26;;;;;;;17.98;11.45;;;;;;;7.10;100.00;100808.72;10463190;28;20507;-60
2022/04/25 03:37:30;;;;;;;14.32;12.15;;;;;;;7.14;100.00;100810.28;10462976;28;20476;-60
2022/04/25 03:42:34;;;;;;;14.77;11.57;;;;;;;7.52;100.00;100807.78;10462590;28;20514;-61
2022/04/25 03:47:37;;;;;;;19.27;14.40;;;;;;;7.67;100.00;100818.44;10466616;28;20044;-60
2022/04/25 03:52:42;;;;;;;21.20;19.08;;;;;;;7.81;100.00;100824.69;10504485;28;20053;-60
2022/04/25 03:57:44;;;;;;;25.75;23.50;;;;;;;7.81;100.00;100824.69;10504285;28;20048;-60
2022/04/25 04:02:47;;;;;;;47.78;44.47;;;;;;;7.87;100.00;100831.41;10502333;28;20057;-60
2022/04/25 04:07:49;;;;;;;96.55;90.85;;;;;;;8.10;100.00;100832.97;10503244;28;20419;-60
2022/04/25 04:12:52;;;;;;;168.30;159.23;;;;;;;8.07;100.00;100843.53;10503609;28;20044;-61
2022/04/25 04:17:54;;;;;;;220.98;209.38;;;;;;;8.21;100.00;100842.88;10502948;28;20045;-60
2022/04/25 04:22:57;;;;;;;277.17;263.25;;;;;;;8.12;100.00;100843.28;10501007;28;20059;-60
2022/04/25 04:27:59;;;;;;;294.75;280.20;;;;;;;8.12;100.00;100846.78;10503108;28;20053;-61
2022/04/25 04:33:02;;;;;;;293.27;278.65;;;;;;;8.63;100.00;100846.19;10500592;28;20049;-61
2022/04/25 04:38:05;;;;;;;292.38;277.65;;;;;;;8.25;100.00;100854.00;10461019;28;20045;-60
2022/04/25 04:43:07;;;;;;;252.70;239.95;;;;;;;8.35;100.00;100850.06;10461621;28;20057;-60
2022/04/25 04:48:10;;;;;;;176.00;166.65;;;;;;;8.04;100.00;100854.09;10470457;28;20514;-60
2022/04/25 04:53:12;;;;;;;113.80;107.25;;;;;;;8.03;100.00;100868.03;10501991;28;20049;-60
2022/04/25 04:58:15;;;;;;;57.83;53.75;;;;;;;8.29;100.00;100879.06;10501136;28;20052;-60
2022/04/25 05:03:17;;;;;;;31.75;21.40;;;;;;;8.34;100.00;100880.53;10499961;28;20040;-61
2022/04/25 05:08:20;;;;;;;20.58;15.63;;;;;;;8.42;100.00;100887.13;10501519;28;20075;-60
2022/04/25 05:13:22;;;;;;;38.80;34.72;;;;;;;8.46;100.00;100897.41;10499319;28;20048;-60
2022/04/25 05:18:24;;;;;;;56.10;52.15;;;;;;;8.61;100.00;100889.75;10499072;28;20053;-61
2022/04/25 05:23:27;;;;;;;103.07;96.80;;;;;;;8.63;100.00;100900.97;10499902;28;20499;-61
2022/04/25 05:28:31;;;;;;;165.50;156.25;;;;;;;8.80;100.00;100905.41;10500022;28;20053;-60
2022/04/25 05:33:34;;;;;;;223.30;211.02;;;;;;;8.30;100.00;100912.88;10500347;28;20045;-60
2022/04/25 05:38:37;;;;;;;258.10;244.48;;;;;;;8.56;100.00;100910.88;10495208;28;20045;-61
2022/04/25 05:43:40;;;;;;;255.02;242.40;;;;;;;8.81;100.00;100922.72;10458120;28;20056;-61
2022/04/25 05:54:12;;;;;;;239.15;226.20;;;;;;;8.53;100.00;100934.50;10456671;28;20145;-60
2022/04/25 05:59:14;;;;;;;228.32;216.18;;;;;;;8.71;100.00;100932.78;10458578;28;20055;-61
2022/04/25 06:04:16;;;;;;;209.20;197.88;;;;;;;8.81;100.00;100934.03;10457981;28;20045;-60
2022/04/25 06:09:19;;;;;;;165.48;156.07;;;;;;;8.93;100.00;100936.06;10477620;28;20450;-61
2022/04/25 06:14:22;;;;;;;153.93;145.27;;;;;;;9.00;100.00;100936.59;10498348;28;20049;-60
2022/04/25 06:19:24;;;;;;;150.73;141.18;;;;;;;8.93;100.00;100938.66;10497260;28;20080;-60
2022/04/25 06:24:27;;;;;;;73.22;68.07;;;;;;;8.70;100.00;100944.13;10498832;28;20056;-60
2022/04/25 06:29:30;;;;;;;71.85;66.20;;;;;;;9.09;100.00;100951.84;10498137;28;20503;-60
2022/04/25 06:34:33;;;;;;;49.40;44.67;;;;;;;9.11;100.00;100955.22;10496274;28;20082;-63
2022/04/25 06:39:35;;;;;;;40.45;36.22;;;;;;;9.14;100.00;100958.59;10487025;28;20055;-62
2022/04/25 06:44:38;;;;;;;40.88;33.42;;;;;;;9.14;100.00;100963.81;10456191;28;20052;-61
2022/04/25 06:49:40;;;;;;;45.53;30.85;;;;;;;9.23;100.00;100972.06;10456884;28;20060;-61
2022/04/25 06:54:42;;;;;;;44.53;32.60;;;;;;;9.00;100.00;100974.94;10457212;28;20056;-61
2022/04/25 06:59:46;;;;;;;37.47;28.60;;;;;;;9.33;100.00;100982.03;10459650;28;20056;-62
2022/04/25 07:04:49;;;;;;;41.92;32.17;;;;;;;9.19;100.00;100983.56;10464965;28;20102;-62
2022/04/25 07:09:51;;;;;;;44.10;33.58;;;;;;;9.23;100.00;100979.91;10464157;28;20053;-62
2022/04/25 07:14:53;;;;;;;35.05;29.38;;;;;;;9.14;100.00;100987.31;10463903;28;20041;-62
2022/04/25 07:19:56;;;;;;;39.40;31.73;;;;;;;9.25;100.00;100992.88;10478799;28;20045;-61
2022/04/25 07:30:19;;;;;;;36.30;31.13;;;;;;;9.21;100.00;101007.88;10501540;28;20102;-61
2022/04/25 07:35:22;;;;;;;37.97;33.90;;;;;;;9.07;100.00;101012.91;10473104;28;20052;-61
2022/04/25 07:40:24;;;;;;;48.90;43.83;;;;;;;9.06;100.00;101014.66;10464330;28;20136;-61
2022/04/25 07:45:27;;;;;;;50.08;45.60;;;;;;;8.58;100.00;101016.03;10463437;28;20053;-61
2022/04/25 07:50:29;;;;;;;90.50;83.95;;;;;;;8.77;100.00;101025.63;10463128;28;20053;-61
2022/04/25 07:55:32;;;;;;;97.53;90.85;;;;;;;8.99;100.00;101039.38;10489758;22;20057;-65
2022/04/25 08:00:35;;;;;;;64.53;59.50;;;;;;;8.99;100.00;101034.13;10448809;28;20084;-64
2022/04/25 08:05:37;;;;;;;69.15;63.92;;;;;;;8.96;100.00;101038.66;10431797;28;20132;-64
2022/04/25 08:10:40;;;;;;;88.70;82.60;;;;;;;9.39;100.00;101044.47;10443064;28;20053;-65
2022/04/25 08:21:03;;;;;;;145.63;136.77;;;;;;;9.54;100.00;101055.94;10440219;28;20132;-65
2022/04/25 08:26:05;;;;;;;156.35;147.38;;;;;;;8.96;100.00;101065.66;10429626;28;20498;-65
2022/04/25 08:31:10;;;;;;;199.18;187.98;;;;;;;9.28;100.00;101056.28;10430518;28;20136;-64
2022/04/25 08:36:19;;;;;;;147.77;139.07;;;;;;;8.97;100.00;101056.88;10419357;28;20046;-65
2022/04/25 08:41:35;;;;;;;141.68;133.18;;;;;;;9.02;100.00;101069.72;10432787;28;20053;-64
2022/04/25 08:46:40;;;;;;;175.18;165.18;;;;;;;9.19;100.00;101071.53;10431864;28;20041;-65
2022/04/25 08:51:42;;;;;;;278.83;263.10;;;;;;;9.30;100.00;101079.72;10422517;28;20056;-64
2022/04/25 08:56:46;;;;;;;263.52;249.80;;;;;;;9.43;100.00;101087.81;10434110;28;20076;-64
2022/04/25 09:01:49;;;;;;;325.05;307.52;;;;;;;9.36;100.00;101089.88;10429336;28;20056;-64
2022/04/25 09:06:51;;;;;;;337.55;320.27;;;;;;;9.75;100.00;101098.47;10418958;28;20051;-64
2022/04/25 09:12:09;;;;;;;348.65;330.90;;;;;;;9.66;100.00;101100.63;10450144;28;20045;-65
2022/04/25 09:17:12;;;;;;;361.85;343.00;;;;;;;9.85;100.00;101112.78;10439146;28;20049;-64
2022/04/25 09:22:33;;;;;;;355.75;337.38;;;;;;;9.60;100.00;101108.78;10417762;28;20046;-64
2022/04/25 09:27:36;;;;;;;354.13;335.55;;;;;;;9.48;100.00;101117.19;10418212;28;20057;-64
2022/04/25 09:32:38;;;;;;;357.40;338.80;;;;;;;9.66;100.00;101124.16;10417991;28;20045;-64
2022/04/25 09:37:42;;;;;;;334.48;316.88;;;;;;;9.66;100.00;101125.91;10416576;28;20058;-64
2022/04/25 09:42:46;;;;;;;344.33;326.52;;;;;;;9.56;100.00;101122.91;10416929;28;20045;-64
2022/04/25 09:47:50;;;;;;;346.70;328.52;;;;;;;9.72;100.00;101124.78;10416822;28;20046;-64
2022/04/25 09:52:53;;;;;;;350.10;331.77;;;;;;;9.46;100.00;101126.88;10416148;28;20065;-64
2022/04/25 09:57:56;;;;;;;347.15;329.35;;;;;;;9.90;100.00;101123.03;10416258;28;20410;-65
2022/04/25 10:03:02;;;;;;;342.77;324.80;;;;;;;9.47;100.00;101141.66;10416930;28;20050;-64
2022/04/25 10:08:09;;;;;;;337.25;319.48;;;;;;;9.56;100.00;101133.34;10416786;28;20041;-64
2022/04/25 10:13:12;;;;;;;338.80;320.60;;;;;;;9.17;100.00;101146.53;10416666;28;20073;-65
2022/04/25 10:18:15;;;;;;;323.65;306.63;;;;;;;9.58;100.00;101146.34;10416352;28;20056;-64
2022/04/25 10:23:18;;;;;;;345.35;327.50;;;;;;;8.98;100.00;101151.72;10416248;28;20049;-64
2022/04/25 10:28:30;;;;;;;325.17;308.20;;;;;;;9.47;100.00;101150.31;10415531;28;20481;-64
2022/04/25 10:33:48;;;;;;;327.90;311.05;;;;;;;9.94;100.00;101153.34;10415084;28;20562;-64
2022/04/25 10:38:50;;;;;;;336.58;318.98;;;;;;;10.12;100.00;101155.06;10415921;28;20061;-64
2022/04/25 10:44:26;;;;;;;342.92;324.77;;;;;;;9.74;100.00;101160.38;10415781;28;20053;-64
2022/04/25 10:49:27;;;;;;;319.23;302.33;;;;;;;10.34;100.00;101157.47;10411576;28;20053;-64
2022/04/25 10:54:51;;;;;;;352.20;334.05;;;;;;;10.56;100.00;101152.00;10414414;28;20051;-64
2022/04/25 10:59:54;;;;;;;357.55;338.65;;;;;;;10.92;100.00;101158.00;10415507;28;20079;-64
2022/04/25 11:05:11;;;;;;;348.48;330.65;;;;;;;10.86;100.00;101163.56;10398019;28;20045;-64
2022/04/25 11:10:51;;;;;;;344.58;326.95;;;;;;;11.02;100.00;101171.47;10414633;28;20053;-64
2022/04/25 11:16:18;;;;;;;344.45;326.67;;;;;;;10.68;100.00;101174.06;10415105;28;20047;-64
2022/04/25 11:21:32;;;;;;;334.77;317.40;;;;;;;10.22;100.00;101185.09;10415060;28;20050;-64
2022/04/25 11:26:36;;;;;;;333.95;316.63;;;;;;;10.28;100.00;101180.47;10414438;28;20195;-64
2022/04/25 11:31:39;;;;;;;344.15;326.42;;;;;;;10.40;100.00;101179.88;10414280;28;20382;-64
2022/04/25 11:36:44;;;;;;;346.20;327.92;;;;;;;10.23;100.00;101194.59;10414706;28;20054;-64
2022/04/25 11:41:46;;;;;;;346.83;328.75;;;;;;;10.19;100.00;101197.47;10414134;28;20140;-64
2022/04/25 11:46:50;;;;;;;343.17;325.08;;;;;;;10.38;100.00;101202.66;10416392;28;20045;-64
2022/04/25 11:51:52;;;;;;;350.95;332.40;;;;;;;10.09;100.00;101193.63;10420836;28;20057;-64
2022/04/25 11:57:00;;;;;;;346.63;328.70;;;;;;;10.15;100.00;101203.75;10419828;28;20491;-65
2022/04/25 12:02:02;;;;;;;347.98;330.35;;;;;;;10.26;100.00;101218.97;10421019;28;20489;-64
2022/04/25 12:07:11;;;;;;;341.13;323.52;;;;;;;10.09;100.00;101209.31;10420719;28;20444;-65
2022/04/25 12:18:28;;;;;;;353.58;335.13;;;;;;;10.55;100.00;101207.88;10419394;28;20382;-64
2022/04/25 12:23:43;;;;;;;346.20;328.38;;;;;;;10.58;100.00;101212.97;10420810;28;20053;-64
2022/04/25 12:29:11;;;;;;;356.25;337.45;;;;;;;10.29;100.00;101211.78;10419473;28;20042;-64
2022/04/25 12:34:16;;;;;;;348.48;330.85;;;;;;;10.77;100.00;101220.72;10415344;28;20411;-64
2022/04/25 12:39:18;;;;;;;352.15;333.80;;;;;;;10.63;100.00;101217.16;10420116;28;20404;-64
2022/04/25 12:44:21;;;;;;;349.80;331.77;;;;;;;10.71;100.00;101217.59;10419360;28;20481;-64
2022/04/25 12:49:39;;;;;;;341.70;324.20;;;;;;;10.44;100.00;101218.06;10419171;28;20400;-64
2022/04/25 12:54:42;;;;;;;346.90;329.52;;;;;;;10.85;100.00;101225.59;10419356;28;20449;-64
2022/04/25 12:59:53;;;;;;;356.98;339.00;;;;;;;10.98;100.00;101223.19;10418338;28;20061;-64
2022/04/25 13:04:58;;;;;;;345.88;328.58;;;;;;;10.90;100.00;101222.72;10419142;28;20107;-64
2022/04/25 13:10:02;;;;;;;332.67;315.88;;;;;;;11.09;100.00;101228.69;10418335;28;20401;-64
2022/04/25 13:15:07;;;;;;;336.40;319.60;;;;;;;11.01;100.00;101228.25;10418685;28;20075;-64
2022/04/25 13:20:18;;;;;;;357.95;339.92;;;;;;;11.02;100.00;101232.56;10418574;28;20056;-64
2022/04/25 13:25:23;;;;;;;347.33;329.73;;;;;;;10.77;100.00;101235.59;10418387;28;20049;-64
2022/04/25 13:30:26;;;;;;;352.33;334.45;;;;;;;10.71;100.00;101234.16;10418242;28;20137;-64
2022/04/25 13:35:29;;;;;;;345.80;328.33;;;;;;;10.70;100.00;101234.22;10417956;28;20082;-64
2022/04/25 13:40:31;;;;;;;352.98;335.02;;;;;;;10.79;100.00;101236.38;10417809;28;20056;-64
2022/04/25 13:45:34;;;;;;;350.75;333.17;;;;;;;10.56;100.00;101234.94;10416927;28;20052;-64
2022/04/25 13:50:36;;;;;;;340.08;322.70;;;;;;;10.26;100.00;101239.91;10417554;28;20056;-64
2022/04/25 13:55:39;;;;;;;346.52;329.15;;;;;;;10.88;100.00;101238.53;10416873;28;20057;-64
2022/04/25 14:00:41;;;;;;;335.30;317.52;;;;;;;10.85;100.00;101241.28;10417056;28;20056;-64
2022/04/25 14:05:45;;;;;;;364.45;346.00;;;;;;;10.87;100.00;101243.84;10415692;28;20041;-64
2022/04/25 14:10:48;;;;;;;352.38;334.60;;;;;;;10.85;100.00;101249.16;10415063;28;20054;-64
2022/04/25 14:15:51;;;;;;;335.90;318.67;;;;;;;10.44;100.00;101241.63;10416517;28;20056;-64
2022/04/25 14:20:53;;;;;;;282.13;267.77;;;;;;;10.83;100.00;101240.53;10415927;28;20148;-64
2022/04/25 14:25:56;;;;;;;281.92;267.65;;;;;;;11.02;100.00;101240.41;10415650;28;20128;-64
2022/04/25 14:30:59;;;;;;;248.43;235.32;;;;;;;11.01;100.00;101233.50;10414991;28;20057;-64
2022/04/25 14:36:03;;;;;;;272.48;258.73;;;;;;;10.98;100.00;101231.03;10415933;28;20064;-64
2022/04/25 14:41:07;;;;;;;258.40;245.30;;;;;;;11.24;100.00;101236.69;10416024;28;20064;-64
2022/04/25 14:46:11;;;;;;;199.30;188.02;;;;;;;11.26;100.00;101237.44;10415180;28;20569;-64
2022/04/25 14:56:35;;;;;;;58.38;54.22;;;;;;;11.36;100.00;101238.63;10414823;28;20050;-64
2022/04/25 15:01:38;;;;;;;47.70;43.88;;;;;;;11.52;100.00;101246.53;10415500;28;20056;-64
2022/04/25 15:06:40;;;;;;;35.67;32.22;;;;;;;11.54;100.00;101247.28;10415378;28;20045;-64
2022/04/25 15:11:42;;;;;;;25.52;22.00;;;;;;;11.58;100.00;101256.66;10414181;28;20053;-64
2022/04/25 15:16:46;;;;;;;49.88;46.00;;;;;;;11.12;100.00;101265.22;10415151;28;20046;-64
2022/04/25 15:21:48;;;;;;;35.90;32.67;;;;;;;11.24;100.00;101261.09;10416369;28;20400;-64
2022/04/25 15:26:50;;;;;;;29.17;23.67;;;;;;;11.93;100.00;101267.03;10422468;28;20379;-63
2022/04/25 15:31:53;;;;;;;26.33;22.48;;;;;;;11.71;100.00;101269.97;10422899;28;20076;-63
2022/04/25 15:36:55;;;;;;;23.95;21.08;;;;;;;11.46;100.00;101276.53;10405098;28;20053;-63
2022/04/25 15:41:58;;;;;;;23.60;21.10;;;;;;;11.70;100.00;101276.13;10422502;28;20049;-63
2022/04/25 15:47:00;;;;;;;26.38;21.13;;;;;;;11.73;100.00;101275.97;10422254;28;20052;-63
2022/04/25 15:52:03;;;;;;;26.55;23.65;;;;;;;11.56;100.00;101286.53;10421565;28;20049;-63
2022/04/25 16:02:26;;;;;;;25.95;23.10;;;;;;;11.07;100.00;101279.50;10421740;28;20052;-64
2022/04/25 16:07:29;;;;;;;24.83;19.27;;;;;;;11.14;100.00;101273.84;10420882;28;20408;-63
2022/04/25 16:12:31;;;;;;;24.75;21.70;;;;;;;11.61;100.00;101276.66;10421380;28;20057;-64
2022/04/25 16:17:34;;;;;;;23.10;18.13;;;;;;;11.33;100.00;101281.59;10421018;28;20050;-63
2022/04/25 16:22:37;;;;;;;43.33;38.55;;;;;;;11.35;100.00;101273.66;10420267;28;20488;-63
2022/04/25 16:27:39;;;;;;;30.67;23.25;;;;;;;11.74;100.00;101279.47;10420058;28;20396;-64
2022/04/25 16:32:41;;;;;;;36.05;25.52;;;;;;;11.37;100.00;101274.41;10419985;28;20053;-63
2022/04/25 16:37:45;;;;;;;32.83;24.85;;;;;;;11.29;100.00;101282.69;10419614;28;20052;-63
2022/04/25 16:42:47;;;;;;;30.02;25.05;;;;;;;11.17;100.00;101282.50;10419532;28;20053;-63
2022/04/25 16:47:50;;;;;;;31.17;24.98;;;;;;;11.01;100.00;101277.19;10419979;28;20064;-63
2022/04/25 16:52:57;;;;;;;33.75;25.58;;;;;;;10.90;100.00;101278.56;10419739;28;20050;-63
2022/04/25 16:58:00;;;;;;;27.10;22.45;;;;;;;10.90;100.00;101282.97;10418989;28;20053;-63
2022/04/25 17:03:03;;;;;;;26.33;19.08;;;;;;;10.88;100.00;101282.22;10418615;28;20061;-63
2022/04/25 17:08:06;;;;;;;31.27;28.08;;;;;;;10.77;100.00;101280.13;10418477;28;20488;-63
2022/04/25 17:13:08;;;;;;;27.85;24.77;;;;;;;10.81;100.00;101280.81;10418275;28;20511;-63
2022/04/25 17:18:11;;;;;;;32.83;29.35;;;;;;;10.49;100.00;101291.13;10418688;28;20045;-63
2022/04/25 17:23:14;;;;;;;34.90;31.42;;;;;;;10.86;100.00;101298.00;10418752;28;20049;-63
2022/04/25 17:28:16;;;;;;;33.08;28.85;;;;;;;10.85;100.00;101290.22;10418383;28;20045;-63
2022/04/25 17:39:21;;;;;;;45.03;40.53;;;;;;;10.78;100.00;101293.16;10417906;28;20052;-64
